createdAt,value
2019-02-07T00:00:33.029Z,22.20
2019-02-07T00:02:25.587Z,22.90
2019-02-07T00:03:25.555Z,22.10
2019-02-07T00:05:18.707Z,22.30
2019-02-07T00:06:18.668Z,23.90
2019-02-07T00:08:11.481Z,23.20
2019-02-07T00:09:11.025Z,22.60
2019-02-07T00:11:04.619Z,24.50
2019-02-07T00:12:04.637Z,25.50
2019-02-07T00:13:56.945Z,25.50
2019-02-07T00:14:56.700Z,25.20
2019-02-07T00:16:49.332Z,25.10
2019-02-07T00:17:49.029Z,25.90
2019-02-07T00:19:42.606Z,26.50
2019-02-07T00:20:42.578Z,26.40
2019-02-07T00:22:34.674Z,26.20
2019-02-07T00:23:34.963Z,28.40
2019-02-07T00:25:28.292Z,27.60
2019-02-07T00:26:28.241Z,26.40
2019-02-07T00:28:20.385Z,25.60
2019-02-07T00:29:20.585Z,24.20
2019-02-07T00:31:13.913Z,25.30
2019-02-07T00:32:13.686Z,25.80
2019-02-07T00:34:06.253Z,27.10
2019-02-07T00:35:06.044Z,25.10
2019-02-07T00:36:59.778Z,27.20
2019-02-07T00:37:59.618Z,25.60
2019-02-07T00:39:51.931Z,26.80
2019-02-07T00:40:51.944Z,26.90
2019-02-07T00:42:45.018Z,25.00
2019-02-07T00:43:44.557Z,25.40
2019-02-07T00:45:37.946Z,28.30
2019-02-07T00:46:38.177Z,27.80
2019-02-07T00:48:31.504Z,27.10
2019-02-07T00:49:31.278Z,27.10
2019-02-07T00:51:24.847Z,27.40
2019-02-07T00:52:24.655Z,27.60
2019-02-07T00:54:17.412Z,26.10
2019-02-07T00:55:17.219Z,29.30
2019-02-07T00:57:09.281Z,28.40
2019-02-07T00:58:09.479Z,31.10
2019-02-07T01:00:03.348Z,31.60
2019-02-07T01:01:03.169Z,31.10
2019-02-07T01:02:55.821Z,30.40
2019-02-07T01:03:55.458Z,30.80
2019-02-07T01:05:48.300Z,34.30
2019-02-07T01:06:47.782Z,32.60
2019-02-07T01:08:40.148Z,33.80
2019-02-07T01:09:40.335Z,34.80
2019-02-07T01:11:32.947Z,35.80
2019-02-07T01:12:32.681Z,37.60
2019-02-07T01:14:24.842Z,35.40
2019-02-07T01:15:25.050Z,33.10
2019-02-07T01:17:18.599Z,40.70
2019-02-07T01:18:18.362Z,39.50
2019-02-07T01:20:11.726Z,42.00
2019-02-07T01:21:11.542Z,38.60
2019-02-07T01:23:04.089Z,38.50
2019-02-07T01:24:03.876Z,36.80
2019-02-07T01:25:57.459Z,38.30
2019-02-07T01:26:57.199Z,41.30
2019-02-07T01:28:49.730Z,39.00
2019-02-07T01:29:49.521Z,37.50
2019-02-07T01:31:41.817Z,40.30
2019-02-07T01:32:42.035Z,43.60
2019-02-07T01:34:35.460Z,40.00
2019-02-07T01:35:35.383Z,39.20
2019-02-07T01:37:27.731Z,39.80
2019-02-07T01:38:27.757Z,40.10
2019-02-07T01:40:20.296Z,39.60
2019-02-07T01:41:19.842Z,40.30
2019-02-07T01:43:12.452Z,38.60
2019-02-07T01:44:12.400Z,38.40
2019-02-07T01:46:04.805Z,36.50
2019-02-07T01:47:04.731Z,35.30
2019-02-07T01:48:57.065Z,35.70
2019-02-07T01:49:57.053Z,34.00
2019-02-07T01:51:50.704Z,33.60
2019-02-07T01:52:50.467Z,34.10
2019-02-07T01:54:42.743Z,32.30
2019-02-07T01:55:42.730Z,31.40
2019-02-07T01:57:36.280Z,30.90
2019-02-07T01:58:35.186Z,32.60
2019-02-07T02:00:27.764Z,31.10
2019-02-07T02:01:27.519Z,31.90
2019-02-07T02:03:21.368Z,28.50
2019-02-07T02:04:20.870Z,29.60
2019-02-07T02:06:14.331Z,30.90
2019-02-07T02:07:14.248Z,29.40
2019-02-07T02:09:08.040Z,27.70
2019-02-07T02:10:07.559Z,28.00
2019-02-07T02:11:59.960Z,30.10
2019-02-07T02:12:59.917Z,29.70
2019-02-07T02:14:53.512Z,28.80
2019-02-07T02:15:53.251Z,29.10
2019-02-07T02:17:45.832Z,29.50
2019-02-07T02:18:45.553Z,28.90
2019-02-07T02:20:39.088Z,27.20
2019-02-07T02:21:38.943Z,27.60
2019-02-07T02:23:31.254Z,27.70
2019-02-07T02:24:31.234Z,27.60
2019-02-07T02:26:23.659Z,27.50
2019-02-07T02:27:23.214Z,27.10
2019-02-07T02:29:15.775Z,25.50
2019-02-07T02:30:15.933Z,26.40
2019-02-07T02:32:09.089Z,25.70
2019-02-07T02:33:08.886Z,26.60
2019-02-07T02:35:02.470Z,26.20
2019-02-07T02:36:02.454Z,26.80
2019-02-07T02:37:56.059Z,25.70
2019-02-07T02:38:55.810Z,26.60
2019-02-07T02:40:48.235Z,25.70
2019-02-07T02:41:48.199Z,26.00
2019-02-07T02:43:40.815Z,25.60
2019-02-07T02:44:40.573Z,24.90
2019-02-07T02:46:32.655Z,25.50
2019-02-07T02:47:32.916Z,22.90
2019-02-07T02:49:26.494Z,24.00
2019-02-07T02:50:26.263Z,23.20
2019-02-07T02:52:18.376Z,22.80
2019-02-07T02:53:18.599Z,23.70
2019-02-07T02:55:10.931Z,23.40
2019-02-07T02:56:10.652Z,22.20
2019-02-07T02:58:04.287Z,23.90
2019-02-07T02:59:04.272Z,25.10
2019-02-07T03:00:57.373Z,23.80
2019-02-07T03:01:57.107Z,22.90
2019-02-07T03:03:49.387Z,22.70
2019-02-07T03:04:49.446Z,23.80
2019-02-07T03:06:42.772Z,22.10
2019-02-07T03:07:42.775Z,21.10
2019-02-07T03:09:34.894Z,22.80
2019-02-07T03:10:34.877Z,22.20
2019-02-07T03:12:28.667Z,20.70
2019-02-07T03:13:28.227Z,21.80
2019-02-07T03:15:20.836Z,21.40
2019-02-07T03:16:20.796Z,20.00
2019-02-07T03:18:14.380Z,21.20
2019-02-07T03:19:13.928Z,20.40
2019-02-07T03:21:06.492Z,20.10
2019-02-07T03:22:06.448Z,20.70
2019-02-07T03:23:58.895Z,19.60
2019-02-07T03:24:58.664Z,20.90
2019-02-07T03:26:51.043Z,21.00
2019-02-07T03:27:50.798Z,20.50
2019-02-07T03:29:44.522Z,22.40
2019-02-07T03:30:44.094Z,20.40
2019-02-07T03:32:36.233Z,19.90
2019-02-07T03:33:36.181Z,19.70
2019-02-07T03:35:29.809Z,18.80
2019-02-07T03:36:29.298Z,19.00
2019-02-07T03:38:22.928Z,19.30
2019-02-07T03:39:22.689Z,18.30
2019-02-07T03:41:16.205Z,19.40
2019-02-07T03:42:16.245Z,18.10
2019-02-07T03:44:08.604Z,18.30
2019-02-07T03:45:08.539Z,18.50
2019-02-07T03:47:01.895Z,18.50
2019-02-07T03:48:01.666Z,18.70
2019-02-07T03:49:54.262Z,19.80
2019-02-07T03:50:54.220Z,19.00
2019-02-07T03:52:47.528Z,18.50
2019-02-07T03:53:47.606Z,17.70
2019-02-07T03:55:39.231Z,18.10
2019-02-07T03:56:39.430Z,17.20
2019-02-07T03:58:32.759Z,17.20
2019-02-07T03:59:32.770Z,17.80
2019-02-07T04:01:24.888Z,18.50
2019-02-07T04:02:25.144Z,18.40
2019-02-07T04:04:17.775Z,16.70
2019-02-07T04:05:17.547Z,15.90
2019-02-07T04:07:09.935Z,16.80
2019-02-07T04:08:09.897Z,16.40
2019-02-07T04:10:03.672Z,17.60
2019-02-07T04:11:03.240Z,17.40
2019-02-07T04:12:56.857Z,16.10
2019-02-07T04:13:56.854Z,16.20
2019-02-07T04:15:50.152Z,17.10
2019-02-07T04:16:49.970Z,15.60
2019-02-07T04:18:42.504Z,18.60
2019-02-07T04:19:42.485Z,16.70
2019-02-07T04:21:34.766Z,16.50
2019-02-07T04:22:34.821Z,14.00
2019-02-07T04:24:27.736Z,15.70
2019-02-07T04:25:27.485Z,16.70
2019-02-07T04:27:21.271Z,17.50
2019-02-07T04:28:21.025Z,17.10
2019-02-07T04:30:13.155Z,15.80
2019-02-07T04:31:13.174Z,15.30
2019-02-07T04:33:06.959Z,15.60
2019-02-07T04:34:06.520Z,15.80
2019-02-07T04:36:00.104Z,15.50
2019-02-07T04:37:00.079Z,15.10
2019-02-07T04:38:52.670Z,15.20
2019-02-07T04:39:52.383Z,15.80
2019-02-07T04:41:44.725Z,17.00
2019-02-07T04:42:44.712Z,17.20
2019-02-07T04:44:37.590Z,15.50
2019-02-07T04:45:36.814Z,16.70
2019-02-07T04:47:29.386Z,15.50
2019-02-07T04:48:29.180Z,15.90
2019-02-07T04:50:22.286Z,15.60
2019-02-07T04:51:22.279Z,14.40
2019-02-07T04:53:14.377Z,14.40
2019-02-07T04:54:14.562Z,15.20
2019-02-07T04:56:07.158Z,13.80
2019-02-07T04:57:06.930Z,14.70
2019-02-07T04:59:00.026Z,13.80
2019-02-07T05:00:00.023Z,14.20
2019-02-07T05:01:53.477Z,14.60
2019-02-07T05:02:53.061Z,14.20
2019-02-07T05:04:46.616Z,13.20
2019-02-07T05:05:46.596Z,13.20
2019-02-07T05:07:39.211Z,12.10
2019-02-07T05:08:38.933Z,13.20
2019-02-07T05:10:31.261Z,14.70
2019-02-07T05:11:31.034Z,14.30
2019-02-07T05:13:24.831Z,13.90
2019-02-07T05:14:24.412Z,13.70
2019-02-07T05:16:17.866Z,13.60
2019-02-07T05:17:17.990Z,13.30
2019-02-07T05:19:11.286Z,12.80
2019-02-07T05:20:11.063Z,13.10
2019-02-07T05:22:03.404Z,12.60
2019-02-07T05:23:03.387Z,12.60
2019-02-07T05:24:56.200Z,12.80
2019-02-07T05:25:55.762Z,13.50
2019-02-07T05:27:49.126Z,13.50
2019-02-07T05:28:49.311Z,12.30
2019-02-07T05:30:41.696Z,12.70
2019-02-07T05:31:41.459Z,13.20
2019-02-07T05:33:33.996Z,12.90
2019-02-07T05:34:34.017Z,12.90
2019-02-07T05:36:26.549Z,13.10
2019-02-07T05:37:26.120Z,12.40
2019-02-07T05:39:18.227Z,13.00
2019-02-07T05:40:17.942Z,12.40
2019-02-07T05:42:10.552Z,13.10
2019-02-07T05:43:10.549Z,12.00
2019-02-07T05:45:03.894Z,12.10
2019-02-07T05:46:03.853Z,12.20
2019-02-07T05:47:56.216Z,11.20
2019-02-07T05:48:56.212Z,12.40
2019-02-07T05:50:49.332Z,11.30
2019-02-07T05:51:49.340Z,11.80
2019-02-07T05:53:41.857Z,13.30
2019-02-07T05:54:41.619Z,12.10
2019-02-07T05:56:34.199Z,12.20
2019-02-07T05:57:34.233Z,11.20
2019-02-07T05:59:27.803Z,11.90
2019-02-07T06:00:27.531Z,12.00
2019-02-07T06:02:19.916Z,12.40
2019-02-07T06:03:19.883Z,11.60
2019-02-07T06:05:13.478Z,11.20
2019-02-07T06:06:13.243Z,11.30
2019-02-07T06:08:05.545Z,11.60
2019-02-07T06:09:05.308Z,11.60
2019-02-07T06:10:59.098Z,12.50
2019-02-07T06:11:58.692Z,11.80
2019-02-07T06:13:51.024Z,11.70
2019-02-07T06:14:51.255Z,11.80
2019-02-07T06:16:44.608Z,10.30
2019-02-07T06:17:44.325Z,10.90
2019-02-07T06:19:36.898Z,11.60
2019-02-07T06:20:36.676Z,11.70
2019-02-07T06:22:29.451Z,10.70
2019-02-07T06:23:29.016Z,11.20
2019-02-07T06:25:21.361Z,10.40
2019-02-07T06:26:21.543Z,10.10
2019-02-07T06:28:14.266Z,12.00
2019-02-07T06:29:14.261Z,11.20
2019-02-07T06:31:07.622Z,11.20
2019-02-07T06:32:07.616Z,9.90
2019-02-07T06:34:00.162Z,11.60
2019-02-07T06:34:59.734Z,10.80
2019-02-07T06:36:52.455Z,10.20
2019-02-07T06:37:52.406Z,10.60
2019-02-07T06:39:45.751Z,10.70
2019-02-07T06:40:45.558Z,9.80
2019-02-07T06:42:37.984Z,10.40
2019-02-07T06:43:38.209Z,10.90
2019-02-07T06:45:30.445Z,9.90
2019-02-07T06:46:30.407Z,11.30
2019-02-07T06:48:23.793Z,10.10
2019-02-07T06:49:23.787Z,10.40
2019-02-07T06:51:17.446Z,10.80
2019-02-07T06:52:16.957Z,10.80
2019-02-07T06:54:10.226Z,9.60
2019-02-07T06:55:10.494Z,10.70
2019-02-07T06:57:04.010Z,9.90
2019-02-07T06:58:03.816Z,10.50
2019-02-07T06:59:56.162Z,10.00
2019-02-07T07:00:56.125Z,11.00
2019-02-07T07:02:49.246Z,10.30
2019-02-07T07:03:49.037Z,9.40
2019-02-07T07:05:41.118Z,10.10
2019-02-07T07:06:41.333Z,10.40
2019-02-07T07:08:34.727Z,11.20
2019-02-07T07:09:34.688Z,9.80
2019-02-07T07:11:27.019Z,10.10
2019-02-07T07:12:27.014Z,10.20
2019-02-07T07:14:19.593Z,10.80
2019-02-07T07:15:19.154Z,10.10
2019-02-07T07:17:12.696Z,10.00
2019-02-07T07:18:12.691Z,10.50
2019-02-07T07:20:05.396Z,9.10
2019-02-07T07:21:05.153Z,9.90
2019-02-07T07:22:57.785Z,9.60
2019-02-07T07:23:57.728Z,9.70
2019-02-07T07:25:51.125Z,9.60
2019-02-07T07:26:50.840Z,9.60
2019-02-07T07:28:44.310Z,9.50
2019-02-07T07:29:44.574Z,9.30
2019-02-07T07:31:37.916Z,10.00
2019-02-07T07:32:37.877Z,9.70
2019-02-07T07:34:30.094Z,10.30
2019-02-07T07:35:30.096Z,10.10
2019-02-07T07:37:22.657Z,9.00
2019-02-07T07:38:22.424Z,9.60
2019-02-07T07:40:15.021Z,9.30
2019-02-07T07:41:15.031Z,9.40
2019-02-07T07:43:07.664Z,8.10
2019-02-07T07:44:07.401Z,8.90
2019-02-07T07:46:00.075Z,10.30
2019-02-07T07:46:59.730Z,9.90
2019-02-07T07:48:53.521Z,9.80
2019-02-07T07:49:53.081Z,9.80
2019-02-07T07:51:45.449Z,9.20
2019-02-07T07:52:45.644Z,9.10
2019-02-07T07:54:39.234Z,8.90
2019-02-07T07:55:39.012Z,9.10
2019-02-07T07:57:31.339Z,8.80
2019-02-07T07:58:31.324Z,9.50
2019-02-07T08:00:24.270Z,9.30
2019-02-07T08:01:23.458Z,9.30
2019-02-07T08:03:17.036Z,8.70
2019-02-07T08:04:16.760Z,8.60
2019-02-07T08:06:10.295Z,9.90
2019-02-07T08:07:10.102Z,9.00
2019-02-07T08:09:03.493Z,9.20
2019-02-07T08:10:03.452Z,9.50
2019-02-07T08:11:57.026Z,9.10
2019-02-07T08:12:57.030Z,9.80
2019-02-07T08:14:49.164Z,9.30
2019-02-07T08:15:49.401Z,8.90
2019-02-07T08:17:47.435Z,9.30
2019-02-07T08:18:42.473Z,9.00
2019-02-07T08:20:34.820Z,9.70
2019-02-07T08:21:35.040Z,9.60
2019-02-07T08:23:28.398Z,9.10
2019-02-07T08:24:28.381Z,9.50
2019-02-07T08:26:20.775Z,10.40
2019-02-07T08:27:20.498Z,9.70
2019-02-07T08:29:14.333Z,9.80
2019-02-07T08:30:14.067Z,9.80
2019-02-07T08:32:06.219Z,9.60
2019-02-07T08:33:06.210Z,9.40
2019-02-07T08:34:59.746Z,9.70
2019-02-07T08:35:59.746Z,9.40
2019-02-07T08:37:53.106Z,8.90
2019-02-07T08:38:52.852Z,9.80
2019-02-07T08:40:45.685Z,9.90
2019-02-07T08:41:45.202Z,9.30
2019-02-07T08:43:38.568Z,10.40
2019-02-07T08:44:38.783Z,10.40
2019-02-07T08:46:32.329Z,11.20
2019-02-07T08:47:31.925Z,9.90
2019-02-07T08:49:24.470Z,10.40
2019-02-07T08:50:24.517Z,9.90
2019-02-07T08:52:17.004Z,10.30
2019-02-07T08:53:16.839Z,11.40
2019-02-07T08:55:09.911Z,9.30
2019-02-07T08:56:09.958Z,10.30
2019-02-07T08:58:02.188Z,9.80
2019-02-07T08:59:01.747Z,9.20
2019-02-07T09:00:55.111Z,10.50
2019-02-07T09:01:55.099Z,9.70
2019-02-07T09:03:49.473Z,10.60
2019-02-07T09:04:49.235Z,9.10
2019-02-07T09:06:41.071Z,9.10
2019-02-07T09:07:41.052Z,9.30
2019-02-07T09:09:34.403Z,9.60
2019-02-07T09:10:34.215Z,10.50
2019-02-07T09:12:27.771Z,9.70
2019-02-07T09:13:27.750Z,10.00
2019-02-07T09:15:20.317Z,10.60
2019-02-07T09:16:19.889Z,11.00
2019-02-07T09:18:13.520Z,10.60
2019-02-07T09:19:13.429Z,10.00
2019-02-07T09:21:06.042Z,11.50
2019-02-07T09:22:05.542Z,10.60
2019-02-07T09:23:58.933Z,9.90
2019-02-07T09:24:58.884Z,9.50
2019-02-07T09:26:51.886Z,10.70
2019-02-07T09:27:51.654Z,10.40
2019-02-07T09:29:44.784Z,10.60
2019-02-07T09:30:44.769Z,11.20
2019-02-07T09:32:38.335Z,10.60
2019-02-07T09:33:38.328Z,10.60
2019-02-07T09:35:30.412Z,11.10
2019-02-07T09:36:30.724Z,10.20
2019-02-07T09:38:23.226Z,10.30
2019-02-07T09:39:23.013Z,9.70
2019-02-07T09:41:16.374Z,11.50
2019-02-07T09:42:16.363Z,11.40
2019-02-07T09:44:08.683Z,11.50
2019-02-07T09:45:08.702Z,11.40
2019-02-07T09:47:01.783Z,11.80
2019-02-07T09:48:02.004Z,10.70
2019-02-07T09:49:54.343Z,10.60
2019-02-07T09:50:54.335Z,10.60
2019-02-07T09:52:47.693Z,12.20
2019-02-07T09:53:47.482Z,12.50
2019-02-07T09:55:40.397Z,11.50
2019-02-07T09:56:39.921Z,12.00
2019-02-07T09:58:32.260Z,11.10
2019-02-07T09:59:32.480Z,10.80
2019-02-07T10:01:25.835Z,11.40
2019-02-07T10:02:25.865Z,10.60
2019-02-07T10:04:18.215Z,10.90
2019-02-07T10:05:18.201Z,12.60
2019-02-07T10:07:11.794Z,11.90
2019-02-07T10:08:11.551Z,11.50
2019-02-07T10:10:03.884Z,11.20
2019-02-07T10:11:03.869Z,11.20
2019-02-07T10:12:56.824Z,10.60
2019-02-07T10:13:56.602Z,11.60
2019-02-07T10:15:48.981Z,12.60
2019-02-07T10:16:48.708Z,13.10
2019-02-07T10:18:42.478Z,11.10
2019-02-07T10:19:42.307Z,11.80
2019-02-07T10:21:35.660Z,13.10
2019-02-07T10:22:35.397Z,12.40
2019-02-07T10:24:29.185Z,12.60
2019-02-07T10:25:28.754Z,13.40
2019-02-07T10:27:21.103Z,13.70
2019-02-07T10:28:21.297Z,14.10
2019-02-07T10:30:14.873Z,15.50
2019-02-07T10:31:14.672Z,15.10
2019-02-07T10:33:07.994Z,15.20
2019-02-07T10:34:07.746Z,15.10
2019-02-07T10:36:00.927Z,14.90
2019-02-07T10:37:00.407Z,14.20
2019-02-07T10:38:52.787Z,15.70
2019-02-07T10:39:52.811Z,17.50
2019-02-07T10:41:45.518Z,17.10
2019-02-07T10:42:45.337Z,18.80
2019-02-07T10:44:37.463Z,18.50
2019-02-07T10:45:37.468Z,15.10
2019-02-07T10:47:30.521Z,18.90
2019-02-07T10:48:29.987Z,18.60
2019-02-07T10:50:22.661Z,17.90
2019-02-07T10:51:22.856Z,19.70
2019-02-07T10:53:16.155Z,20.40
2019-02-07T10:54:15.972Z,18.20
2019-02-07T10:56:09.417Z,18.10
2019-02-07T10:57:09.637Z,19.20
2019-02-07T10:59:03.169Z,17.20
2019-02-07T11:00:02.726Z,18.60
2019-02-07T11:01:55.185Z,18.50
2019-02-07T11:02:55.320Z,17.60
2019-02-07T11:04:48.372Z,14.80
2019-02-07T11:05:47.920Z,15.80
2019-02-07T11:07:41.313Z,17.50
2019-02-07T11:08:41.286Z,17.10
2019-02-07T11:10:33.814Z,18.10
2019-02-07T11:11:33.592Z,17.30
2019-02-07T11:13:27.208Z,15.90
2019-02-07T11:14:27.189Z,16.10
2019-02-07T11:16:19.787Z,15.70
2019-02-07T11:17:19.520Z,15.50
2019-02-07T11:19:21.026Z,16.50
2019-02-07T11:20:12.645Z,15.50
2019-02-07T11:22:05.412Z,15.70
2019-02-07T11:23:05.185Z,16.90
2019-02-07T11:24:57.142Z,17.60
2019-02-07T11:25:57.406Z,15.50
2019-02-07T11:27:49.967Z,14.80
2019-02-07T11:28:49.504Z,15.80
2019-02-07T11:30:42.073Z,15.10
2019-02-07T11:31:42.025Z,15.30
2019-02-07T11:33:34.586Z,16.00
2019-02-07T11:34:34.162Z,16.40
2019-02-07T11:36:26.759Z,17.40
2019-02-07T11:37:26.750Z,16.20
2019-02-07T11:39:20.285Z,15.30
2019-02-07T11:40:20.101Z,15.80
2019-02-07T11:42:12.182Z,16.80
2019-02-07T11:43:12.167Z,17.00
2019-02-07T11:45:04.728Z,14.10
2019-02-07T11:46:04.467Z,14.60
2019-02-07T11:47:57.198Z,15.40
2019-02-07T11:49:06.490Z,14.60
2019-02-07T11:50:49.427Z,15.20
2019-02-07T11:51:49.423Z,14.60
2019-02-07T11:53:41.786Z,18.10
2019-02-07T11:54:41.522Z,16.20
2019-02-07T11:56:34.710Z,15.60
2019-02-07T11:57:34.431Z,16.00
2019-02-07T11:59:26.828Z,17.00
2019-02-07T12:00:26.539Z,15.20
2019-02-07T12:02:20.097Z,17.60
2019-02-07T12:03:20.161Z,17.80
2019-02-07T12:05:12.457Z,17.80
2019-02-07T12:06:12.242Z,17.20
2019-02-07T12:08:06.040Z,17.50
2019-02-07T12:09:05.584Z,15.90
2019-02-07T12:10:59.152Z,17.00
2019-02-07T12:11:58.940Z,16.60
2019-02-07T12:13:50.994Z,17.10
2019-02-07T12:14:51.034Z,16.90
2019-02-07T12:16:43.128Z,16.10
2019-02-07T12:17:43.102Z,16.00
2019-02-07T12:19:35.930Z,16.60
2019-02-07T12:20:35.690Z,16.60
2019-02-07T12:22:29.025Z,15.30
2019-02-07T12:23:29.034Z,15.30
2019-02-07T12:25:21.330Z,16.50
2019-02-07T12:26:21.367Z,16.00
2019-02-07T12:28:13.727Z,15.90
2019-02-07T12:29:13.433Z,16.70
2019-02-07T12:31:07.045Z,14.10
2019-02-07T12:32:07.012Z,14.70
2019-02-07T12:33:59.172Z,15.50
2019-02-07T12:34:59.111Z,15.20
2019-02-07T12:36:52.918Z,15.50
2019-02-07T12:37:52.725Z,16.60
2019-02-07T12:39:45.812Z,15.20
2019-02-07T12:40:45.806Z,14.10
2019-02-07T12:42:38.543Z,15.50
2019-02-07T12:43:38.351Z,15.30
2019-02-07T12:45:31.753Z,17.40
2019-02-07T12:46:31.466Z,16.30
2019-02-07T12:48:24.334Z,18.60
2019-02-07T12:49:29.252Z,18.90
2019-02-07T12:51:17.201Z,19.40
2019-02-07T12:52:17.447Z,18.90
2019-02-07T12:54:10.006Z,20.00
2019-02-07T12:55:09.502Z,19.60
2019-02-07T12:57:03.099Z,20.00
2019-02-07T12:58:02.823Z,21.70
2019-02-07T12:59:55.353Z,21.80
2019-02-07T13:00:55.175Z,24.50
2019-02-07T13:02:49.316Z,23.20
2019-02-07T13:03:48.488Z,22.90
2019-02-07T13:05:41.546Z,24.30
2019-02-07T13:06:41.602Z,23.60
2019-02-07T13:08:33.701Z,25.10
2019-02-07T13:09:33.715Z,25.30
2019-02-07T13:11:27.499Z,25.20
2019-02-07T13:12:27.067Z,24.70
2019-02-07T13:14:19.669Z,27.80
2019-02-07T13:15:19.633Z,26.50
2019-02-07T13:17:12.187Z,25.00
2019-02-07T13:18:11.980Z,25.90
2019-02-07T13:20:05.136Z,25.90
2019-02-07T13:21:05.140Z,25.40
2019-02-07T13:22:58.018Z,25.30
2019-02-07T13:23:59.479Z,27.10
2019-02-07T13:25:50.354Z,23.50
2019-02-07T13:26:50.370Z,25.20
2019-02-07T13:28:43.692Z,23.00
2019-02-07T13:29:43.682Z,22.00
2019-02-07T13:31:37.170Z,24.20
2019-02-07T13:32:37.040Z,23.20
2019-02-07T13:34:30.557Z,20.90
2019-02-07T13:35:30.136Z,22.50
2019-02-07T13:37:22.438Z,22.20
2019-02-07T13:38:22.473Z,21.40
2019-02-07T13:40:15.016Z,23.60
2019-02-07T13:41:14.827Z,23.30
2019-02-07T13:43:07.129Z,22.60
2019-02-07T13:44:07.146Z,23.20
2019-02-07T13:45:59.209Z,25.70
2019-02-07T13:46:59.006Z,25.10
2019-02-07T13:48:51.307Z,23.80
2019-02-07T13:49:52.266Z,23.80
2019-02-07T13:51:44.909Z,24.00
2019-02-07T13:52:44.649Z,23.90
2019-02-07T13:54:36.995Z,24.30
2019-02-07T13:55:37.474Z,23.90
2019-02-07T13:57:30.538Z,24.00
2019-02-07T13:58:30.570Z,24.00
2019-02-07T14:00:23.448Z,25.30
2019-02-07T14:01:22.888Z,23.50
2019-02-07T14:03:16.532Z,25.60
2019-02-07T14:04:16.233Z,25.00
2019-02-07T14:06:08.379Z,25.40
2019-02-07T14:07:08.329Z,24.80
2019-02-07T14:09:01.101Z,25.70
2019-02-07T14:10:00.887Z,25.60
2019-02-07T14:11:54.048Z,25.00
2019-02-07T14:12:54.010Z,26.10
2019-02-07T14:14:46.829Z,25.50
2019-02-07T14:15:46.375Z,25.60
2019-02-07T14:17:39.765Z,25.20
2019-02-07T14:18:39.937Z,25.70
2019-02-07T14:20:33.287Z,27.60
2019-02-07T14:21:33.088Z,27.20
2019-02-07T14:23:26.676Z,27.70
2019-02-07T14:24:26.441Z,28.10
2019-02-07T14:26:19.218Z,27.70
2019-02-07T14:27:18.752Z,26.50
2019-02-07T14:29:12.118Z,23.50
2019-02-07T14:30:12.344Z,24.80
2019-02-07T14:32:04.885Z,26.70
2019-02-07T14:33:04.668Z,26.50
2019-02-07T14:34:57.800Z,28.00
2019-02-07T14:35:57.742Z,27.80
2019-02-07T14:37:50.545Z,24.90
2019-02-07T14:38:50.071Z,25.60
2019-02-07T14:40:42.678Z,26.80
2019-02-07T14:41:42.713Z,26.10
2019-02-07T14:43:38.002Z,27.20
2019-02-07T14:44:35.018Z,26.10
2019-02-07T14:46:28.334Z,27.40
2019-02-07T14:47:28.332Z,26.30
2019-02-07T14:49:20.799Z,29.40
2019-02-07T14:50:20.712Z,26.60
2019-02-07T14:52:13.041Z,25.40
2019-02-07T14:53:13.016Z,24.70
2019-02-07T14:55:05.674Z,22.80
2019-02-07T14:56:05.683Z,26.10
2019-02-07T14:57:58.842Z,26.90
2019-02-07T14:59:01.320Z,25.50
2019-02-07T15:00:51.355Z,27.40
2019-02-07T15:01:51.403Z,26.90
2019-02-07T15:03:44.501Z,27.90
2019-02-07T15:04:44.767Z,26.20
2019-02-07T15:06:37.752Z,24.40
2019-02-07T15:07:37.593Z,25.10
2019-02-07T15:09:29.954Z,26.10
2019-02-07T15:10:29.677Z,25.10
2019-02-07T15:12:23.252Z,24.50
2019-02-07T15:13:23.278Z,25.10
2019-02-07T15:15:15.390Z,25.40
2019-02-07T15:16:15.624Z,24.50
2019-02-07T15:18:07.914Z,24.50
2019-02-07T15:19:07.927Z,24.90
2019-02-07T15:21:01.075Z,24.50
2019-02-07T15:22:01.074Z,25.40
2019-02-07T15:23:54.823Z,25.20
2019-02-07T15:24:54.417Z,24.60
2019-02-07T15:26:46.991Z,23.90
2019-02-07T15:27:46.706Z,24.10
2019-02-07T15:29:40.234Z,25.00
2019-02-07T15:30:40.288Z,23.30
2019-02-07T15:32:32.530Z,24.90
2019-02-07T15:33:32.374Z,25.50
2019-02-07T15:35:25.965Z,23.60
2019-02-07T15:36:25.980Z,24.40
2019-02-07T15:38:18.076Z,24.70
2019-02-07T15:39:18.097Z,25.40
2019-02-07T15:41:11.657Z,25.20
2019-02-07T15:42:11.623Z,24.60
2019-02-07T15:44:04.028Z,26.60
2019-02-07T15:45:04.027Z,25.80
2019-02-07T15:46:56.306Z,24.80
2019-02-07T15:47:56.092Z,23.00
2019-02-07T15:49:49.444Z,23.80
2019-02-07T15:50:49.654Z,22.20
2019-02-07T15:52:42.993Z,25.20
2019-02-07T15:53:42.770Z,23.30
2019-02-07T15:55:36.138Z,24.30
2019-02-07T15:56:36.365Z,23.30
2019-02-07T15:58:29.649Z,22.70
2019-02-07T15:59:29.658Z,23.10
2019-02-07T16:01:22.785Z,22.50
2019-02-07T16:02:23.065Z,24.40
2019-02-07T16:04:16.605Z,23.80
2019-02-07T16:05:16.350Z,22.60
2019-02-07T16:07:09.042Z,23.00
2019-02-07T16:08:09.072Z,22.90
2019-02-07T16:10:02.329Z,23.80
2019-02-07T16:11:02.372Z,23.50
2019-02-07T16:12:54.838Z,21.60
2019-02-07T16:13:54.839Z,21.20
2019-02-07T16:15:48.683Z,22.50
2019-02-07T16:16:48.210Z,20.90
2019-02-07T16:18:41.908Z,22.50
2019-02-07T16:19:40.758Z,21.50
2019-02-07T16:21:33.926Z,21.90
2019-02-07T16:22:32.945Z,21.10
2019-02-07T16:24:25.671Z,22.40
2019-02-07T16:25:25.320Z,21.90
2019-02-07T16:27:19.100Z,22.20
2019-02-07T16:28:20.308Z,21.50
2019-02-07T16:30:11.359Z,21.10
2019-02-07T16:31:11.135Z,22.30
2019-02-07T16:33:03.652Z,22.00
2019-02-07T16:34:03.455Z,22.10
2019-02-07T16:35:56.823Z,21.10
2019-02-07T16:36:57.044Z,20.90
2019-02-07T16:38:49.492Z,20.70
2019-02-07T16:39:49.193Z,19.70
2019-02-07T16:41:41.730Z,21.20
2019-02-07T16:42:41.674Z,20.90
2019-02-07T16:44:34.210Z,20.90
2019-02-07T16:45:34.004Z,20.60
2019-02-07T16:47:26.360Z,20.00
2019-02-07T16:48:26.357Z,19.50
2019-02-07T16:50:19.676Z,20.20
2019-02-07T16:51:19.723Z,21.60
2019-02-07T16:53:12.022Z,22.20
2019-02-07T16:54:12.065Z,20.70
2019-02-07T16:56:05.599Z,22.40
2019-02-07T16:57:05.389Z,21.40
2019-02-07T16:58:57.593Z,21.40
2019-02-07T16:59:57.855Z,22.70
2019-02-07T17:01:51.427Z,22.70
2019-02-07T17:02:51.195Z,21.90
2019-02-07T17:04:43.071Z,22.70
2019-02-07T17:05:42.835Z,23.30
2019-02-07T17:07:36.190Z,23.00
2019-02-07T17:08:35.931Z,22.10
2019-02-07T17:10:28.447Z,24.60
2019-02-07T17:11:28.024Z,26.60
2019-02-07T17:13:20.873Z,25.80
2019-02-07T17:14:20.620Z,24.70
2019-02-07T17:16:13.795Z,24.50
2019-02-07T17:17:13.981Z,27.20
2019-02-07T17:19:07.335Z,24.50
2019-02-07T17:20:14.515Z,27.00
2019-02-07T17:22:00.440Z,24.30
2019-02-07T17:23:00.473Z,27.20
2019-02-07T17:24:53.270Z,27.10
2019-02-07T17:25:52.763Z,26.20
2019-02-07T17:27:45.152Z,24.70
2019-02-07T17:28:45.324Z,23.90
2019-02-07T17:30:37.880Z,25.50
2019-02-07T17:31:37.431Z,25.10
2019-02-07T17:33:31.063Z,25.50
2019-02-07T17:34:30.839Z,25.10
2019-02-07T17:36:24.411Z,27.20
2019-02-07T17:37:24.379Z,26.20
2019-02-07T17:39:17.496Z,26.40
2019-02-07T17:40:17.494Z,23.80
2019-02-07T17:42:10.329Z,25.90
2019-02-07T17:43:10.109Z,25.80
2019-02-07T17:45:02.764Z,23.80
2019-02-07T17:46:02.534Z,24.90
2019-02-07T17:47:55.113Z,24.40
2019-02-07T17:48:54.867Z,25.70
2019-02-07T17:50:47.200Z,26.90
2019-02-07T17:51:47.500Z,25.10
2019-02-07T17:53:41.008Z,27.10
2019-02-07T17:54:40.576Z,26.70
2019-02-07T17:56:33.154Z,24.20
2019-02-07T17:57:33.092Z,24.80
2019-02-07T17:59:26.472Z,26.70
2019-02-07T18:00:26.215Z,25.30
2019-02-07T18:02:18.839Z,26.10
2019-02-07T18:03:18.809Z,27.30
2019-02-07T18:05:12.410Z,27.00
2019-02-07T18:06:12.161Z,24.70
2019-02-07T18:08:04.274Z,24.50
2019-02-07T18:09:04.495Z,24.90
2019-02-07T18:10:57.125Z,26.50
2019-02-07T18:11:56.322Z,25.00
2019-02-07T18:13:49.466Z,25.60
2019-02-07T18:14:49.689Z,26.00
2019-02-07T18:16:43.232Z,24.90
2019-02-07T18:17:43.013Z,26.60
2019-02-07T18:19:35.345Z,26.10
2019-02-07T18:20:35.123Z,23.80
2019-02-07T18:22:28.959Z,26.50
2019-02-07T18:23:28.700Z,26.20
2019-02-07T18:25:21.027Z,25.20
2019-02-07T18:26:21.010Z,24.60
2019-02-07T18:28:14.339Z,25.80
2019-02-07T18:29:14.105Z,24.80
2019-02-07T18:31:07.766Z,23.60
2019-02-07T18:32:07.500Z,25.90
2019-02-07T18:34:00.278Z,23.60
2019-02-07T18:34:59.797Z,23.50
2019-02-07T18:36:53.405Z,24.30